sensor_id;sensor_type;location;lat;lon;timestamp;pressure;altitude;pressure_sealevel;temperature;humidity
51369;BME280;37459;51.416;5.502;2023-05-02T00:00:16;100394.50;;;12.10;56.47
51369;BME280;37459;51.416;5.502;2023-05-02T00:02:43;100400.75;;;12.10;56.39
51369;BME280;37459;51.416;5.502;2023-05-02T00:05:10;100399.88;;;12.10;56.43
51369;BME280;37459;51.416;5.502;2023-05-02T00:07:37;100400.38;;;12.07;56.59
51369;BME280;37459;51.416;5.502;2023-05-02T00:10:04;100402.84;;;12.08;56.59
51369;BME280;37459;51.416;5.502;2023-05-02T00:12:30;100399.53;;;12.06;56.43
51369;BME280;37459;51.416;5.502;2023-05-02T00:14:58;100409.75;;;12.04;56.44
51369;BME280;37459;51.416;5.502;2023-05-02T00:17:26;100421.16;;;12.06;56.47
51369;BME280;37459;51.416;5.502;2023-05-02T00:19:53;100423.88;;;12.06;56.43
51369;BME280;37459;51.416;5.502;2023-05-02T00:22:19;100423.25;;;12.04;56.62
51369;BME280;37459;51.416;5.502;2023-05-02T00:24:46;100435.72;;;12.05;56.47
51369;BME280;37459;51.416;5.502;2023-05-02T00:27:12;100427.84;;;12.04;56.44
51369;BME280;37459;51.416;5.502;2023-05-02T00:29:39;100430.78;;;12.02;56.22
51369;BME280;37459;51.416;5.502;2023-05-02T00:32:06;100439.09;;;12.01;56.37
51369;BME280;37459;51.416;5.502;2023-05-02T00:34:34;100438.28;;;12.00;56.60
51369;BME280;37459;51.416;5.502;2023-05-02T00:37:00;100432.88;;;12.00;56.09
51369;BME280;37459;51.416;5.502;2023-05-02T00:39:27;100437.91;;;11.97;56.28
51369;BME280;37459;51.416;5.502;2023-05-02T00:41:56;100437.56;;;11.93;56.01
51369;BME280;37459;51.416;5.502;2023-05-02T00:44:23;100441.69;;;11.96;56.28
51369;BME280;37459;51.416;5.502;2023-05-02T00:46:50;100434.59;;;11.95;56.19
51369;BME280;37459;51.416;5.502;2023-05-02T00:49:17;100431.69;;;11.96;56.24
51369;BME280;37459;51.416;5.502;2023-05-02T00:51:45;100439.19;;;11.94;56.34
51369;BME280;37459;51.416;5.502;2023-05-02T00:54:12;100444.59;;;11.94;56.24
51369;BME280;37459;51.416;5.502;2023-05-02T00:56:39;100438.38;;;11.94;56.27
51369;BME280;37459;51.416;5.502;2023-05-02T00:59:07;100444.81;;;11.92;56.50
51369;BME280;37459;51.416;5.502;2023-05-02T01:01:40;100439.06;;;11.89;56.39
51369;BME280;37459;51.416;5.502;2023-05-02T01:04:21;100450.47;;;11.91;57.15
51369;BME280;37459;51.416;5.502;2023-05-02T01:07:01;100446.09;;;11.90;56.44
51369;BME280;37459;51.416;5.502;2023-05-02T01:09:40;100447.16;;;11.89;56.46
51369;BME280;37459;51.416;5.502;2023-05-02T01:12:13;100437.19;;;11.89;56.38
51369;BME280;37459;51.416;5.502;2023-05-02T01:14:43;100442.81;;;11.88;56.68
51369;BME280;37459;51.416;5.502;2023-05-02T01:17:12;100440.53;;;11.85;56.66
51369;BME280;37459;51.416;5.502;2023-05-02T01:19:42;100449.25;;;11.87;56.65
51369;BME280;37459;51.416;5.502;2023-05-02T01:22:12;100444.66;;;11.87;56.28
51369;BME280;37459;51.416;5.502;2023-05-02T01:24:51;100442.19;;;11.86;56.77
51369;BME280;37459;51.416;5.502;2023-05-02T01:27:26;100442.19;;;11.86;56.73
51369;BME280;37459;51.416;5.502;2023-05-02T01:29:56;100446.97;;;11.84;56.75
51369;BME280;37459;51.416;5.502;2023-05-02T01:32:25;100446.97;;;11.84;57.20
51369;BME280;37459;51.416;5.502;2023-05-02T01:34:56;100443.47;;;11.83;56.61
51369;BME280;37459;51.416;5.502;2023-05-02T01:37:24;100443.94;;;11.80;56.60
51369;BME280;37459;51.416;5.502;2023-05-02T01:39:53;100439.22;;;11.76;56.86
51369;BME280;37459;51.416;5.502;2023-05-02T01:42:22;100445.22;;;11.78;56.47
51369;BME280;37459;51.416;5.502;2023-05-02T01:44:50;100444.38;;;11.77;56.76
51369;BME280;37459;51.416;5.502;2023-05-02T01:47:21;100454.34;;;11.77;56.66
51369;BME280;37459;51.416;5.502;2023-05-02T01:49:49;100458.72;;;11.78;56.58
51369;BME280;37459;51.416;5.502;2023-05-02T01:52:18;100455.16;;;11.77;56.63
51369;BME280;37459;51.416;5.502;2023-05-02T01:54:47;100457.66;;;11.79;56.50
51369;BME280;37459;51.416;5.502;2023-05-02T01:57:16;100461.84;;;11.75;56.52
51369;BME280;37459;51.416;5.502;2023-05-02T01:59:45;100467.25;;;11.75;56.66
51369;BME280;37459;51.416;5.502;2023-05-02T02:02:13;100460.66;;;11.70;56.56
51369;BME280;37459;51.416;5.502;2023-05-02T02:04:42;100468.31;;;11.74;56.61
51369;BME280;37459;51.416;5.502;2023-05-02T02:07:12;100466.66;;;11.72;56.41
51369;BME280;37459;51.416;5.502;2023-05-02T02:09:39;100469.81;;;11.69;56.55
51369;BME280;37459;51.416;5.502;2023-05-02T02:12:11;100475.22;;;11.69;56.70
51369;BME280;37459;51.416;5.502;2023-05-02T02:14:42;100479.34;;;11.72;56.63
51369;BME280;37459;51.416;5.502;2023-05-02T02:17:14;100482.25;;;11.70;56.70
51369;BME280;37459;51.416;5.502;2023-05-02T02:19:44;100491.44;;;11.69;56.68
51369;BME280;37459;51.416;5.502;2023-05-02T02:22:12;100488.13;;;11.67;56.52
51369;BME280;37459;51.416;5.502;2023-05-02T02:24:40;100493.53;;;11.67;56.40
51369;BME280;37459;51.416;5.502;2023-05-02T02:27:07;100499.97;;;11.66;56.51
51369;BME280;37459;51.416;5.502;2023-05-02T02:29:33;100498.91;;;11.67;55.76
51369;BME280;37459;51.416;5.502;2023-05-02T02:32:00;100497.25;;;11.66;56.41
51369;BME280;37459;51.416;5.502;2023-05-02T02:34:27;100493.97;;;11.64;56.17
51369;BME280;37459;51.416;5.502;2023-05-02T02:36:59;100492.19;;;11.58;56.21
51369;BME280;37459;51.416;5.502;2023-05-02T02:39:38;100503.34;;;11.62;55.77
51369;BME280;37459;51.416;5.502;2023-05-02T02:42:09;100504.00;;;11.57;56.03
51369;BME280;37459;51.416;5.502;2023-05-02T02:44:42;100508.97;;;11.60;56.02
51369;BME280;37459;51.416;5.502;2023-05-02T02:47:17;100508.97;;;11.60;55.98
51369;BME280;37459;51.416;5.502;2023-05-02T02:49:47;100512.72;;;11.59;56.14
51369;BME280;37459;51.416;5.502;2023-05-02T02:52:21;100515.19;;;11.61;56.12
51369;BME280;37459;51.416;5.502;2023-05-02T02:54:50;100508.59;;;11.57;56.24
51369;BME280;37459;51.416;5.502;2023-05-02T02:57:22;100500.56;;;11.50;56.37
51369;BME280;37459;51.416;5.502;2023-05-02T02:59:56;100515.28;;;11.54;56.29
51369;BME280;37459;51.416;5.502;2023-05-02T03:02:27;100516.91;;;11.55;56.33
51369;BME280;37459;51.416;5.502;2023-05-02T03:04:56;100512.41;;;11.49;56.55
51369;BME280;37459;51.416;5.502;2023-05-02T03:07:27;100515.72;;;11.51;56.33
51369;BME280;37459;51.416;5.502;2023-05-02T03:09:54;100526.50;;;11.51;56.36
51369;BME280;37459;51.416;5.502;2023-05-02T03:12:21;100520.34;;;11.44;56.72
51369;BME280;37459;51.416;5.502;2023-05-02T03:14:48;100527.78;;;11.48;56.43
51369;BME280;37459;51.416;5.502;2023-05-02T03:17:15;100543.75;;;11.50;56.21
51369;BME280;37459;51.416;5.502;2023-05-02T03:19:41;100534.47;;;11.46;56.34
51369;BME280;37459;51.416;5.502;2023-05-02T03:22:08;100526.56;;;11.44;56.40
51369;BME280;37459;51.416;5.502;2023-05-02T03:24:36;100539.84;;;11.46;56.28
51369;BME280;37459;51.416;5.502;2023-05-02T03:27:02;100539.03;;;11.45;56.30
51369;BME280;37459;51.416;5.502;2023-05-02T03:29:29;100545.72;;;11.43;56.48
51369;BME280;37459;51.416;5.502;2023-05-02T03:31:55;100544.44;;;11.45;56.30
51369;BME280;37459;51.416;5.502;2023-05-02T03:34:22;100547.94;;;11.46;56.39
51369;BME280;37459;51.416;5.502;2023-05-02T03:36:48;100545.72;;;11.43;56.27
51369;BME280;37459;51.416;5.502;2023-05-02T03:39:15;100549.22;;;11.43;56.49
51369;BME280;37459;51.416;5.502;2023-05-02T03:41:43;100543.00;;;11.43;56.48
51369;BME280;37459;51.416;5.502;2023-05-02T03:44:10;100546.75;;;11.42;56.36
51369;BME280;37459;51.416;5.502;2023-05-02T03:46:37;100543.44;;;11.40;56.37
51369;BME280;37459;51.416;5.502;2023-05-02T03:49:03;100549.44;;;11.42;56.43
51369;BME280;37459;51.416;5.502;2023-05-02T03:51:30;100553.22;;;11.41;56.45
51369;BME280;37459;51.416;5.502;2023-05-02T03:53:59;100553.22;;;11.41;56.28
51369;BME280;37459;51.416;5.502;2023-05-02T03:56:25;100553.63;;;11.38;56.54
51369;BME280;37459;51.416;5.502;2023-05-02T03:58:53;100555.72;;;11.36;56.77
51369;BME280;37459;51.416;5.502;2023-05-02T04:01:20;100570.44;;;11.40;56.84
51369;BME280;37459;51.416;5.502;2023-05-02T04:03:46;100561.13;;;11.36;56.84
51369;BME280;37459;51.416;5.502;2023-05-02T04:06:13;100557.81;;;11.34;56.71
51369;BME280;37459;51.416;5.502;2023-05-02T04:08:39;100562.78;;;11.37;56.80
51369;BME280;37459;51.416;5.502;2023-05-02T04:11:06;100557.81;;;11.34;56.84
51369;BME280;37459;51.416;5.502;2023-05-02T04:13:33;100568.63;;;11.34;56.77
51369;BME280;37459;51.416;5.502;2023-05-02T04:16:01;100574.00;;;11.34;56.88
51369;BME280;37459;51.416;5.502;2023-05-02T04:18:28;100580.47;;;11.33;56.83
51369;BME280;37459;51.416;5.502;2023-05-02T04:20:55;100579.41;;;11.34;56.86
51369;BME280;37459;51.416;5.502;2023-05-02T04:23:21;100588.13;;;11.36;56.78
51369;BME280;37459;51.416;5.502;2023-05-02T04:25:51;100580.69;;;11.31;56.91
51369;BME280;37459;51.416;5.502;2023-05-02T04:28:19;100589.00;;;11.29;56.90
51369;BME280;37459;51.416;5.502;2023-05-02T04:30:46;100594.38;;;11.29;56.49
51369;BME280;37459;51.416;5.502;2023-05-02T04:33:14;100603.09;;;11.31;56.86
51369;BME280;37459;51.416;5.502;2023-05-02T04:35:40;100605.19;;;11.29;56.43
51369;BME280;37459;51.416;5.502;2023-05-02T04:38:07;100603.97;;;11.25;56.62
51369;BME280;37459;51.416;5.502;2023-05-02T04:40:33;100602.31;;;11.24;56.33
51369;BME280;37459;51.416;5.502;2023-05-02T04:43:00;100616.44;;;11.26;56.47
51369;BME280;37459;51.416;5.502;2023-05-02T04:45:27;100619.34;;;11.25;56.49
51369;BME280;37459;51.416;5.502;2023-05-02T04:47:53;100629.31;;;11.24;56.25
51369;BME280;37459;51.416;5.502;2023-05-02T04:50:21;100633.06;;;11.23;56.08
51369;BME280;37459;51.416;5.502;2023-05-02T04:52:48;100638.06;;;11.20;55.99
51369;BME280;37459;51.416;5.502;2023-05-02T04:55:14;100647.59;;;11.22;55.63
51369;BME280;37459;51.416;5.502;2023-05-02T04:57:41;100642.25;;;11.16;55.48
51369;BME280;37459;51.416;5.502;2023-05-02T05:00:08;100648.25;;;11.18;55.02
51369;BME280;37459;51.416;5.502;2023-05-02T05:02:35;100648.31;;;11.11;54.83
51369;BME280;37459;51.416;5.502;2023-05-02T05:05:02;100659.69;;;11.13;55.07
51369;BME280;37459;51.416;5.502;2023-05-02T05:07:30;100663.44;;;11.12;54.70
51369;BME280;37459;51.416;5.502;2023-05-02T05:09:56;100668.81;;;11.12;54.64
51369;BME280;37459;51.416;5.502;2023-05-02T05:12:23;100676.91;;;11.12;54.35
51369;BME280;37459;51.416;5.502;2023-05-02T05:14:49;100688.78;;;11.11;54.59
51369;BME280;37459;51.416;5.502;2023-05-02T05:17:17;100688.38;;;11.07;53.92
51369;BME280;37459;51.416;5.502;2023-05-02T05:19:43;100695.44;;;11.08;53.64
51369;BME280;37459;51.416;5.502;2023-05-02T05:22:10;100685.50;;;11.02;53.57
51369;BME280;37459;51.416;5.502;2023-05-02T05:24:38;100693.81;;;11.01;53.61
51369;BME280;37459;51.416;5.502;2023-05-02T05:27:05;100704.19;;;11.04;53.49
51369;BME280;37459;51.416;5.502;2023-05-02T05:29:31;100693.19;;;10.99;53.31
51369;BME280;37459;51.416;5.502;2023-05-02T05:31:58;100705.03;;;10.98;53.37
51369;BME280;37459;51.416;5.502;2023-05-02T05:34:24;100709.97;;;11.01;54.16
51369;BME280;37459;51.416;5.502;2023-05-02T05:36:51;100725.34;;;11.00;54.15
51369;BME280;37459;51.416;5.502;2023-05-02T05:39:17;100712.88;;;10.99;54.47
51369;BME280;37459;51.416;5.502;2023-05-02T05:41:45;100717.47;;;10.99;54.79
51369;BME280;37459;51.416;5.502;2023-05-02T05:44:12;100708.75;;;10.97;54.82
51369;BME280;37459;51.416;5.502;2023-05-02T05:46:38;100719.13;;;11.00;54.85
51369;BME280;37459;51.416;5.502;2023-05-02T05:49:05;100707.13;;;10.96;54.78
51369;BME280;37459;51.416;5.502;2023-05-02T05:51:32;100714.16;;;10.97;54.98
51369;BME280;37459;51.416;5.502;2023-05-02T05:53:58;100726.38;;;10.99;55.08
51369;BME280;37459;51.416;5.502;2023-05-02T05:56:25;100723.31;;;10.96;55.24
51369;BME280;37459;51.416;5.502;2023-05-02T05:58:53;100720.59;;;10.96;55.20
51369;BME280;37459;51.416;5.502;2023-05-02T06:01:20;100726.63;;;10.98;55.42
51369;BME280;37459;51.416;5.502;2023-05-02T06:03:47;100734.72;;;10.98;55.48
51369;BME280;37459;51.416;5.502;2023-05-02T06:06:13;100735.72;;;10.97;55.62
51369;BME280;37459;51.416;5.502;2023-05-02T06:08:40;100741.31;;;11.02;56.35
51369;BME280;37459;51.416;5.502;2023-05-02T06:11:08;100745.66;;;11.03;55.91
51369;BME280;37459;51.416;5.502;2023-05-02T06:13:35;100736.19;;;10.94;55.72
51369;BME280;37459;51.416;5.502;2023-05-02T06:16:04;100746.09;;;11.00;56.19
51369;BME280;37459;51.416;5.502;2023-05-02T06:18:30;100747.75;;;11.01;56.06
51369;BME280;37459;51.416;5.502;2023-05-02T06:20:57;100752.31;;;11.00;56.05
51369;BME280;37459;51.416;5.502;2023-05-02T06:23:23;100746.97;;;10.94;56.06
51369;BME280;37459;51.416;5.502;2023-05-02T06:25:50;100751.91;;;10.97;56.14
51369;BME280;37459;51.416;5.502;2023-05-02T06:28:17;100760.63;;;10.99;56.16
51369;BME280;37459;51.416;5.502;2023-05-02T06:30:43;100760.63;;;10.99;56.32
51369;BME280;37459;51.416;5.502;2023-05-02T06:33:11;100764.13;;;10.99;56.34
51369;BME280;37459;51.416;5.502;2023-05-02T06:35:38;100757.53;;;10.95;56.49
51369;BME280;37459;51.416;5.502;2023-05-02T06:38:04;100765.63;;;10.95;56.29
51369;BME280;37459;51.416;5.502;2023-05-02T06:40:33;100773.50;;;10.97;56.27
51369;BME280;37459;51.416;5.502;2023-05-02T06:43:00;100777.63;;;10.99;56.31
51369;BME280;37459;51.416;5.502;2023-05-02T06:45:27;100782.63;;;10.96;56.27
51369;BME280;37459;51.416;5.502;2023-05-02T06:47:53;100783.66;;;10.95;56.46
51369;BME280;37459;51.416;5.502;2023-05-02T06:50:21;100798.59;;;10.97;56.41
51369;BME280;37459;51.416;5.502;2023-05-02T06:52:47;100789.91;;;10.95;56.35
51369;BME280;37459;51.416;5.502;2023-05-02T06:55:14;100788.44;;;10.93;56.21
51369;BME280;37459;51.416;5.502;2023-05-02T06:57:40;100794.44;;;10.95;56.14
51369;BME280;37459;51.416;5.502;2023-05-02T07:00:09;100788.88;;;10.89;56.56
51369;BME280;37459;51.416;5.502;2023-05-02T07:02:35;100807.94;;;10.95;56.59
51369;BME280;37459;51.416;5.502;2023-05-02T07:05:02;100797.59;;;10.92;56.54
51369;BME280;37459;51.416;5.502;2023-05-02T07:07:30;100801.94;;;10.93;56.57
51369;BME280;37459;51.416;5.502;2023-05-02T07:09:56;100811.69;;;10.94;56.63
51369;BME280;37459;51.416;5.502;2023-05-02T07:12:24;100816.88;;;10.95;56.31
51369;BME280;37459;51.416;5.502;2023-05-02T07:14:51;100816.03;;;10.95;56.81
51369;BME280;37459;51.416;5.502;2023-05-02T07:17:17;100829.31;;;10.96;56.67
51369;BME280;37459;51.416;5.502;2023-05-02T07:19:44;100826.81;;;10.95;56.75
51369;BME280;37459;51.416;5.502;2023-05-02T07:22:10;100832.84;;;10.97;56.70
51369;BME280;37459;51.416;5.502;2023-05-02T07:24:40;100833.88;;;10.96;56.67
51369;BME280;37459;51.416;5.502;2023-05-02T07:27:07;100844.44;;;10.97;56.78
51369;BME280;37459;51.416;5.502;2023-05-02T07:29:34;100848.00;;;10.98;57.09
51369;BME280;37459;51.416;5.502;2023-05-02T07:32:00;100849.00;;;10.97;56.95
51369;BME280;37459;51.416;5.502;2023-05-02T07:34:28;100845.28;;;10.98;56.78
51369;BME280;37459;51.416;5.502;2023-05-02T07:36:55;100861.47;;;10.98;56.85
51369;BME280;37459;51.416;5.502;2023-05-02T07:39:22;100850.25;;;11.01;57.01
51369;BME280;37459;51.416;5.502;2023-05-02T07:41:51;100859.16;;;11.01;57.06
51369;BME280;37459;51.416;5.502;2023-05-02T07:44:18;100852.75;;;11.02;56.88
51369;BME280;37459;51.416;5.502;2023-05-02T07:46:44;100860.63;;;11.04;57.02
51369;BME280;37459;51.416;5.502;2023-05-02T07:49:11;100850.88;;;11.03;56.99
51369;BME280;37459;51.416;5.502;2023-05-02T07:51:38;100849.00;;;11.03;56.94
51369;BME280;37459;51.416;5.502;2023-05-02T07:54:14;100853.13;;;11.06;56.92
51369;BME280;37459;51.416;5.502;2023-05-02T07:56:41;100867.66;;;11.12;56.52
51369;BME280;37459;51.416;5.502;2023-05-02T07:59:09;100864.75;;;11.13;56.67
51369;BME280;37459;51.416;5.502;2023-05-02T08:01:36;100865.56;;;11.14;56.67
51369;BME280;37459;51.416;5.502;2023-05-02T08:04:03;100857.69;;;11.12;56.66
51369;BME280;37459;51.416;5.502;2023-05-02T08:06:30;100872.59;;;11.21;56.52
51369;BME280;37459;51.416;5.502;2023-05-02T08:08:57;100875.91;;;11.23;56.19
51369;BME280;37459;51.416;5.502;2023-05-02T08:11:23;100866.97;;;11.23;56.77
51369;BME280;37459;51.416;5.502;2023-05-02T08:13:50;100864.06;;;11.24;56.49
51369;BME280;37459;51.416;5.502;2023-05-02T08:16:18;100871.72;;;11.27;56.34
51369;BME280;37459;51.416;5.502;2023-05-02T08:18:45;100876.09;;;11.28;56.24
51369;BME280;37459;51.416;5.502;2023-05-02T08:21:12;100881.66;;;11.34;56.35
51369;BME280;37459;51.416;5.502;2023-05-02T08:23:40;100877.13;;;11.27;56.16
51369;BME280;37459;51.416;5.502;2023-05-02T08:26:07;100890.59;;;11.34;56.18
51369;BME280;37459;51.416;5.502;2023-05-02T08:28:34;100897.25;;;11.31;56.37
51369;BME280;37459;51.416;5.502;2023-05-02T08:31:00;100897.88;;;11.34;56.28
51369;BME280;37459;51.416;5.502;2023-05-02T08:33:28;100903.25;;;11.34;56.29
51369;BME280;37459;51.416;5.502;2023-05-02T08:35:55;100908.25;;;11.37;56.21
51369;BME280;37459;51.416;5.502;2023-05-02T08:38:21;100913.22;;;11.33;56.13
51369;BME280;37459;51.416;5.502;2023-05-02T08:40:48;100918.44;;;11.35;56.16
51369;BME280;37459;51.416;5.502;2023-05-02T08:43:15;100905.78;;;11.28;56.15
51369;BME280;37459;51.416;5.502;2023-05-02T08:45:43;100918.22;;;11.29;56.28
51369;BME280;37459;51.416;5.502;2023-05-02T08:48:11;100924.22;;;11.31;56.18
51369;BME280;37459;51.416;5.502;2023-05-02T08:50:42;100919.28;;;11.28;56.28
51369;BME280;37459;51.416;5.502;2023-05-02T08:53:11;100937.31;;;11.35;56.12
51369;BME280;37459;51.416;5.502;2023-05-02T08:55:40;100938.34;;;11.34;56.11
51369;BME280;37459;51.416;5.502;2023-05-02T08:58:07;100934.22;;;11.31;56.34
51369;BME280;37459;51.416;5.502;2023-05-02T09:00:37;100929.44;;;11.26;56.16
51369;BME280;37459;51.416;5.502;2023-05-02T09:03:06;100937.72;;;11.31;56.16
51369;BME280;37459;51.416;5.502;2023-05-02T09:05:40;100948.31;;;11.33;56.19
51369;BME280;37459;51.416;5.502;2023-05-02T09:08:07;100940.44;;;11.31;56.14
51369;BME280;37459;51.416;5.502;2023-05-02T09:10:34;100946.69;;;11.32;56.11
51369;BME280;37459;51.416;5.502;2023-05-02T09:13:32;100949.38;;;11.32;56.00
51369;BME280;37459;51.416;5.502;2023-05-02T09:16:00;100942.75;;;11.28;56.04
51369;BME280;37459;51.416;5.502;2023-05-02T09:18:28;100955.34;;;11.34;56.33
51369;BME280;37459;51.416;5.502;2023-05-02T09:20:58;100959.13;;;11.33;56.20
51369;BME280;37459;51.416;5.502;2023-05-02T09:23:33;100961.81;;;11.33;56.37
51369;BME280;37459;51.416;5.502;2023-05-02T09:26:00;100962.44;;;11.35;56.47
51369;BME280;37459;51.416;5.502;2023-05-02T09:28:40;100967.84;;;11.35;56.37
51369;BME280;37459;51.416;5.502;2023-05-02T09:31:08;100974.66;;;11.38;56.65
51369;BME280;37459;51.416;5.502;2023-05-02T09:33:35;100957.69;;;11.30;56.64
51369;BME280;37459;51.416;5.502;2023-05-02T09:36:04;100981.75;;;11.39;56.63
51369;BME280;37459;51.416;5.502;2023-05-02T09:38:32;100972.16;;;11.36;56.87
51369;BME280;37459;51.416;5.502;2023-05-02T09:40:59;100976.34;;;11.39;56.74
51369;BME280;37459;51.416;5.502;2023-05-02T09:43:27;100968.84;;;11.34;56.77
51369;BME280;37459;51.416;5.502;2023-05-02T09:45:58;100980.06;;;11.38;56.65
51369;BME280;37459;51.416;5.502;2023-05-02T09:48:25;100976.53;;;11.37;56.62
51369;BME280;37459;51.416;5.502;2023-05-02T09:50:52;100980.28;;;11.36;56.81
51369;BME280;37459;51.416;5.502;2023-05-02T09:53:21;100976.34;;;11.39;56.85
51369;BME280;37459;51.416;5.502;2023-05-02T09:55:58;100985.06;;;11.41;56.87
51369;BME280;37459;51.416;5.502;2023-05-02T09:58:25;100980.06;;;11.38;56.44
51369;BME280;37459;51.416;5.502;2023-05-02T10:00:51;100988.59;;;11.41;56.23
51369;BME280;37459;51.416;5.502;2023-05-02T10:03:18;100987.75;;;11.41;56.14
51369;BME280;37459;51.416;5.502;2023-05-02T10:05:46;100982.56;;;11.39;55.94
51369;BME280;37459;51.416;5.502;2023-05-02T10:08:13;100985.06;;;11.41;55.96
51369;BME280;37459;51.416;5.502;2023-05-02T10:10:47;100994.19;;;11.40;55.99
51369;BME280;37459;51.416;5.502;2023-05-02T10:13:16;100987.75;;;11.41;55.59
51369;BME280;37459;51.416;5.502;2023-05-02T10:15:48;100987.13;;;11.39;55.69
51369;BME280;37459;51.416;5.502;2023-05-02T10:18:20;100990.47;;;11.41;55.76
51369;BME280;37459;51.416;5.502;2023-05-02T10:20:56;100993.97;;;11.41;55.58
51369;BME280;37459;51.416;5.502;2023-05-02T10:23:28;100998.31;;;11.42;55.69
51369;BME280;37459;51.416;5.502;2023-05-02T10:25:57;100994.19;;;11.40;55.69
51369;BME280;37459;51.416;5.502;2023-05-02T10:28:25;100995.00;;;11.40;55.58
51369;BME280;37459;51.416;5.502;2023-05-02T10:30:52;100997.50;;;11.42;55.61
51369;BME280;37459;51.416;5.502;2023-05-02T10:33:20;100984.44;;;11.39;55.43
51369;BME280;37459;51.416;5.502;2023-05-02T10:35:47;100987.75;;;11.41;55.63
51369;BME280;37459;51.416;5.502;2023-05-02T10:38:15;100988.38;;;11.43;55.85
51369;BME280;37459;51.416;5.502;2023-05-02T10:40:48;101006.22;;;11.44;55.61
51369;BME280;37459;51.416;5.502;2023-05-02T10:43:24;101005.16;;;11.45;55.66
51369;BME280;37459;51.416;5.502;2023-05-02T10:45:52;101006.22;;;11.44;55.64
51369;BME280;37459;51.416;5.502;2023-05-02T10:48:21;101000.19;;;11.42;55.70
51369;BME280;37459;51.416;5.502;2023-05-02T10:50:50;100991.69;;;11.38;55.71
51369;BME280;37459;51.416;5.502;2023-05-02T10:53:21;100996.88;;;11.46;55.73
51369;BME280;37459;51.416;5.502;2023-05-02T10:56:10;100988.16;;;11.44;55.58
51369;BME280;37459;51.416;5.502;2023-05-02T10:58:38;100988.75;;;11.46;55.66
51369;BME280;37459;51.416;5.502;2023-05-02T11:01:31;100994.97;;;11.47;55.46
51369;BME280;37459;51.416;5.502;2023-05-02T11:04:01;100993.34;;;11.46;55.54
51369;BME280;37459;51.416;5.502;2023-05-02T11:06:29;101001.44;;;11.46;55.66
51369;BME280;37459;51.416;5.502;2023-05-02T11:09:29;100999.97;;;11.50;55.71
51369;BME280;37459;51.416;5.502;2023-05-02T11:11:56;101010.56;;;11.51;55.47
51369;BME280;37459;51.416;5.502;2023-05-02T11:14:44;101012.41;;;11.51;55.32
51369;BME280;37459;51.416;5.502;2023-05-02T11:17:15;101012.41;;;11.51;55.53
51369;BME280;37459;51.416;5.502;2023-05-02T11:22:55;101010.78;;;11.50;55.39
51369;BME280;37459;51.416;5.502;2023-05-02T11:25:32;101006.22;;;11.44;55.45
51369;BME280;37459;51.416;5.502;2023-05-02T11:27:59;101001.25;;;11.41;55.53
51369;BME280;37459;51.416;5.502;2023-05-02T11:30:43;100996.47;;;11.43;55.47
51369;BME280;37459;51.416;5.502;2023-05-02T11:33:16;100996.25;;;11.44;55.50
51369;BME280;37459;51.416;5.502;2023-05-02T11:35:45;100995.41;;;11.44;55.21
51369;BME280;37459;51.416;5.502;2023-05-02T11:38:14;100995.41;;;11.50;55.48
51369;BME280;37459;51.416;5.502;2023-05-02T11:40:52;100994.56;;;11.50;55.64
51369;BME280;37459;51.416;5.502;2023-05-02T11:43:19;100996.44;;;11.56;55.72
51369;BME280;37459;51.416;5.502;2023-05-02T11:45:48;100996.44;;;11.56;55.62
51369;BME280;37459;51.416;5.502;2023-05-02T11:48:16;100989.97;;;11.57;55.63
51369;BME280;37459;51.416;5.502;2023-05-02T11:50:44;100989.97;;;11.57;55.22
51369;BME280;37459;51.416;5.502;2023-05-02T11:53:11;100988.94;;;11.58;55.50
51369;BME280;37459;51.416;5.502;2023-05-02T11:55:44;100997.22;;;11.63;55.75
51369;BME280;37459;51.416;5.502;2023-05-02T11:58:15;101006.34;;;11.62;55.52
51369;BME280;37459;51.416;5.502;2023-05-02T12:00:43;101005.13;;;11.65;55.63
51369;BME280;37459;51.416;5.502;2023-05-02T12:03:21;101007.81;;;11.65;55.75
51369;BME280;37459;51.416;5.502;2023-05-02T12:05:49;101006.56;;;11.67;55.70
51369;BME280;37459;51.416;5.502;2023-05-02T12:08:20;100999.06;;;11.69;55.57
51369;BME280;37459;51.416;5.502;2023-05-02T12:10:48;101010.09;;;11.68;55.80
51369;BME280;37459;51.416;5.502;2023-05-02T12:13:15;101002.19;;;11.66;55.51
51369;BME280;37459;51.416;5.502;2023-05-02T12:15:42;101012.16;;;11.72;55.71
51369;BME280;37459;51.416;5.502;2023-05-02T12:18:11;101016.72;;;11.72;55.37
51369;BME280;37459;51.416;5.502;2023-05-02T12:20:39;101010.50;;;11.71;55.44
51369;BME280;37459;51.416;5.502;2023-05-02T12:23:06;101016.53;;;11.74;55.01
51369;BME280;37459;51.416;5.502;2023-05-02T12:25:37;101016.53;;;11.74;55.27
51369;BME280;37459;51.416;5.502;2023-05-02T12:28:04;101025.25;;;11.76;55.29
51369;BME280;37459;51.416;5.502;2023-05-02T12:30:31;101028.56;;;11.78;55.42
51369;BME280;37459;51.416;5.502;2023-05-02T12:32:59;101035.59;;;11.79;55.24
51369;BME280;37459;51.416;5.502;2023-05-02T12:35:27;101029.19;;;11.80;55.45
51369;BME280;37459;51.416;5.502;2023-05-02T12:38:07;101036.84;;;11.83;55.24
51369;BME280;37459;51.416;5.502;2023-05-02T12:40:34;101042.84;;;11.85;55.33
51369;BME280;37459;51.416;5.502;2023-05-02T12:43:03;101039.53;;;11.83;55.61
51369;BME280;37459;51.416;5.502;2023-05-02T12:45:32;101032.25;;;11.83;55.89
51369;BME280;37459;51.416;5.502;2023-05-02T12:47:59;101040.78;;;11.87;56.00
51369;BME280;37459;51.416;5.502;2023-05-02T12:50:36;101044.28;;;11.87;56.12
51369;BME280;37459;51.416;5.502;2023-05-02T12:53:04;101046.00;;;11.88;56.23
51369;BME280;37459;51.416;5.502;2023-05-02T12:55:32;101036.63;;;11.91;55.85
51369;BME280;37459;51.416;5.502;2023-05-02T12:58:02;101040.16;;;11.91;55.78
51369;BME280;37459;51.416;5.502;2023-05-02T13:00:30;101044.50;;;11.92;56.22